sensor_id;sensor_type;location;lat;lon;timestamp;pressure;altitude;pressure_sealevel;temperature;humidity
62791;BME280;48830;53.426;10.300;2023-04-06T00:00:50;101992.69;;;2.11;100.00
62791;BME280;48830;53.426;10.300;2023-04-06T00:03:16;101991.28;;;2.03;100.00
62791;BME280;48830;53.426;10.300;2023-04-06T00:05:42;101986.00;;;2.00;100.00
62791;BME280;48830;53.426;10.300;2023-04-06T00:08:08;101989.75;;;1.93;100.00
62791;BME280;48830;53.426;10.300;2023-04-06T00:10:33;101988.69;;;1.90;100.00
62791;BME280;48830;53.426;10.300;2023-04-06T00:12:59;101984.16;;;1.86;100.00
62791;BME280;48830;53.426;10.300;2023-04-06T00:15:25;101986.28;;;1.79;100.00
62791;BME280;48830;53.426;10.300;2023-04-06T00:17:51;101979.56;;;1.80;100.00
62791;BME280;48830;53.426;10.300;2023-04-06T00:20:17;101987.63;;;1.74;100.00
62791;BME280;48830;53.426;10.300;2023-04-06T00:22:43;101981.09;;;1.66;100.00
62791;BME280;48830;53.426;10.300;2023-04-06T00:25:09;101974.63;;;1.70;100.00
62791;BME280;48830;53.426;10.300;2023-04-06T00:27:37;101974.38;;;1.67;100.00
62791;BME280;48830;53.426;10.300;2023-04-06T00:30:04;101975.94;;;1.65;100.00
62791;BME280;48830;53.426;10.300;2023-04-06T00:32:30;101974.09;;;1.62;100.00
62791;BME280;48830;53.426;10.300;2023-04-06T00:34:56;101976.41;;;1.59;100.00
62791;BME280;48830;53.426;10.300;2023-04-06T00:37:21;101975.28;;;1.55;100.00
62791;BME280;48830;53.426;10.300;2023-04-06T00:39:47;101975.53;;;1.47;100.00
62791;BME280;48830;53.426;10.300;2023-04-06T00:42:13;101976.06;;;1.54;100.00
62791;BME280;48830;53.426;10.300;2023-04-06T00:44:42;101967.59;;;1.54;100.00
62791;BME280;48830;53.426;10.300;2023-04-06T00:47:08;101965.41;;;1.47;100.00
62791;BME280;48830;53.426;10.300;2023-04-06T00:49:34;101971.03;;;1.43;100.00
62791;BME280;48830;53.426;10.300;2023-04-06T00:52:00;101960.00;;;1.42;100.00
62791;BME280;48830;53.426;10.300;2023-04-06T00:54:27;101961.44;;;1.39;100.00
62791;BME280;48830;53.426;10.300;2023-04-06T00:56:53;101961.09;;;1.34;100.00
62791;BME280;48830;53.426;10.300;2023-04-06T00:59:19;101966.28;;;1.36;100.00
62791;BME280;48830;53.426;10.300;2023-04-06T01:01:45;101953.50;;;1.34;100.00
62791;BME280;48830;53.426;10.300;2023-04-06T01:04:28;101954.19;;;1.31;100.00
62791;BME280;48830;53.426;10.300;2023-04-06T01:06:54;101956.19;;;1.24;100.00
62791;BME280;48830;53.426;10.300;2023-04-06T01:09:23;101952.31;;;1.17;100.00
62791;BME280;48830;53.426;10.300;2023-04-06T01:11:51;101956.38;;;1.15;100.00
62791;BME280;48830;53.426;10.300;2023-04-06T01:14:20;101951.31;;;1.15;100.00
62791;BME280;48830;53.426;10.300;2023-04-06T01:16:57;101944.50;;;1.14;100.00
62791;BME280;48830;53.426;10.300;2023-04-06T01:19:27;101946.03;;;1.12;100.00
62791;BME280;48830;53.426;10.300;2023-04-06T01:21:54;101945.16;;;1.12;100.00
62791;BME280;48830;53.426;10.300;2023-04-06T01:24:40;101946.38;;;1.05;100.00
62791;BME280;48830;53.426;10.300;2023-04-06T01:27:06;101940.53;;;1.06;100.00
62791;BME280;48830;53.426;10.300;2023-04-06T01:29:46;101949.78;;;1.05;100.00
62791;BME280;48830;53.426;10.300;2023-04-06T01:32:17;101938.09;;;1.08;100.00
62791;BME280;48830;53.426;10.300;2023-04-06T01:34:48;101946.69;;;1.10;100.00
62791;BME280;48830;53.426;10.300;2023-04-06T01:37:13;101944.94;;;1.09;100.00
62791;BME280;48830;53.426;10.300;2023-04-06T01:39:40;101950.66;;;1.06;100.00
62791;BME280;48830;53.426;10.300;2023-04-06T01:42:07;101945.16;;;1.00;100.00
62791;BME280;48830;53.426;10.300;2023-04-06T01:44:34;101947.69;;;1.00;100.00
62791;BME280;48830;53.426;10.300;2023-04-06T01:47:07;101943.16;;;0.96;100.00
62791;BME280;48830;53.426;10.300;2023-04-06T01:49:32;101937.66;;;0.90;100.00
62791;BME280;48830;53.426;10.300;2023-04-06T01:51:58;101934.16;;;0.88;100.00
62791;BME280;48830;53.426;10.300;2023-04-06T01:54:24;101932.50;;;0.88;100.00
62791;BME280;48830;53.426;10.300;2023-04-06T01:57:10;101932.41;;;0.87;100.00
62791;BME280;48830;53.426;10.300;2023-04-06T02:00:02;101926.22;;;0.83;100.00
62791;BME280;48830;53.426;10.300;2023-04-06T02:02:38;101931.72;;;0.77;100.00
62791;BME280;48830;53.426;10.300;2023-04-06T02:05:09;101927.53;;;0.78;100.00
62791;BME280;48830;53.426;10.300;2023-04-06T02:07:35;101926.66;;;0.77;100.00
62791;BME280;48830;53.426;10.300;2023-04-06T02:10:02;101934.34;;;0.79;100.00
62791;BME280;48830;53.426;10.300;2023-04-06T02:12:34;101922.22;;;0.75;100.00
62791;BME280;48830;53.426;10.300;2023-04-06T02:15:01;101924.47;;;0.70;100.00
62791;BME280;48830;53.426;10.300;2023-04-06T02:17:26;101919.94;;;0.66;100.00
62791;BME280;48830;53.426;10.300;2023-04-06T02:19:52;101922.47;;;0.66;100.00
62791;BME280;48830;53.426;10.300;2023-04-06T02:22:17;101928.75;;;0.71;100.00
62791;BME280;48830;53.426;10.300;2023-04-06T02:24:43;101921.50;;;0.76;100.00
62791;BME280;48830;53.426;10.300;2023-04-06T02:27:09;101924.03;;;0.76;100.00
62791;BME280;48830;53.426;10.300;2023-04-06T02:29:35;101924.66;;;0.73;100.00
62791;BME280;48830;53.426;10.300;2023-04-06T02:32:02;101918.50;;;0.70;100.00
62791;BME280;48830;53.426;10.300;2023-04-06T02:34:30;101928.84;;;0.73;100.00
62791;BME280;48830;53.426;10.300;2023-04-06T02:36:55;101929.09;;;0.76;100.00
62791;BME280;48830;53.426;10.300;2023-04-06T02:39:21;101924.75;;;0.75;100.00
62791;BME280;48830;53.426;10.300;2023-04-06T02:41:46;101924.91;;;0.76;100.00
62791;BME280;48830;53.426;10.300;2023-04-06T02:44:17;101924.13;;;0.77;100.00
62791;BME280;48830;53.426;10.300;2023-04-06T02:46:43;101924.66;;;0.73;100.00
62791;BME280;48830;53.426;10.300;2023-04-06T02:49:09;101926.75;;;0.67;100.00
62791;BME280;48830;53.426;10.300;2023-04-06T02:51:35;101932.59;;;0.66;100.00
62791;BME280;48830;53.426;10.300;2023-04-06T02:54:20;101928.16;;;0.64;100.00
62791;BME280;48830;53.426;10.300;2023-04-06T02:56:46;101927.41;;;0.65;100.00
62791;BME280;48830;53.426;10.300;2023-04-06T02:59:12;101933.34;;;0.65;100.00
62791;BME280;48830;53.426;10.300;2023-04-06T03:01:41;101925.53;;;0.62;100.00
62791;BME280;48830;53.426;10.300;2023-04-06T03:04:07;101927.81;;;0.59;100.00
62791;BME280;48830;53.426;10.300;2023-04-06T03:06:33;101923.88;;;0.51;100.00
62791;BME280;48830;53.426;10.300;2023-04-06T03:09:08;101921.09;;;0.48;100.00
62791;BME280;48830;53.426;10.300;2023-04-06T03:11:34;101922.41;;;0.43;100.00
62791;BME280;48830;53.426;10.300;2023-04-06T03:13:59;101915.59;;;0.42;100.00
62791;BME280;48830;53.426;10.300;2023-04-06T03:16:25;101917.13;;;0.40;100.00
62791;BME280;48830;53.426;10.300;2023-04-06T03:18:51;101915.38;;;0.39;100.00
62791;BME280;48830;53.426;10.300;2023-04-06T03:21:17;101915.47;;;0.40;100.00
62791;BME280;48830;53.426;10.300;2023-04-06T03:23:47;101922.81;;;0.37;100.00
62791;BME280;48830;53.426;10.300;2023-04-06T03:26:16;101925.69;;;0.42;100.00
62791;BME280;48830;53.426;10.300;2023-04-06T03:28:41;101925.25;;;0.36;100.00
62791;BME280;48830;53.426;10.300;2023-04-06T03:31:07;101920.19;;;0.36;100.00
62791;BME280;48830;53.426;10.300;2023-04-06T03:34:02;101919.31;;;0.35;100.00
62791;BME280;48830;53.426;10.300;2023-04-06T03:36:31;101922.63;;;0.34;100.00
62791;BME280;48830;53.426;10.300;2023-04-06T03:38:57;101918.44;;;0.35;100.00
62791;BME280;48830;53.426;10.300;2023-04-06T03:41:23;101919.75;;;0.30;100.00
62791;BME280;48830;53.426;10.300;2023-04-06T03:44:03;101919.28;;;0.23;100.00
62791;BME280;48830;53.426;10.300;2023-04-06T03:46:28;101922.34;;;0.19;100.00
62791;BME280;48830;53.426;10.300;2023-04-06T03:48:56;101922.13;;;0.16;100.00
62791;BME280;48830;53.426;10.300;2023-04-06T03:51:23;101914.56;;;0.16;100.00
62791;BME280;48830;53.426;10.300;2023-04-06T03:53:48;101915.72;;;0.10;100.00
62791;BME280;48830;53.426;10.300;2023-04-06T03:56:14;101916.59;;;0.10;100.00
62791;BME280;48830;53.426;10.300;2023-04-06T03:58:39;101923.19;;;0.08;100.00
62791;BME280;48830;53.426;10.300;2023-04-06T04:01:05;101925.63;;;0.07;100.00
62791;BME280;48830;53.426;10.300;2023-04-06T04:03:31;101928.00;;;0.05;100.00
62791;BME280;48830;53.426;10.300;2023-04-06T04:05:57;101924.72;;;0.06;100.00
62791;BME280;48830;53.426;10.300;2023-04-06T04:08:24;101926.25;;;0.04;100.00
62791;BME280;48830;53.426;10.300;2023-04-06T04:10:50;101919.44;;;0.03;100.00
62791;BME280;48830;53.426;10.300;2023-04-06T04:13:15;101926.25;;;0.04;100.00
62791;BME280;48830;53.426;10.300;2023-04-06T04:15:44;101929.53;;;0.03;100.00
62791;BME280;48830;53.426;10.300;2023-04-06T04:18:10;101932.84;;;0.02;100.00
62791;BME280;48830;53.426;10.300;2023-04-06T04:20:35;101930.06;;;-0.01;100.00
62791;BME280;48830;53.426;10.300;2023-04-06T04:23:01;101935.00;;;-0.03;100.00
62791;BME280;48830;53.426;10.300;2023-04-06T04:25:30;101938.31;;;-0.04;100.00
62791;BME280;48830;53.426;10.300;2023-04-06T04:27:55;101937.44;;;-0.04;100.00
62791;BME280;48830;53.426;10.300;2023-04-06T04:30:22;101942.25;;;-0.07;100.00
62791;BME280;48830;53.426;10.300;2023-04-06T04:32:47;101939.34;;;-0.12;100.00
62791;BME280;48830;53.426;10.300;2023-04-06T04:35:17;101940.47;;;-0.08;100.00
62791;BME280;48830;53.426;10.300;2023-04-06T04:37:43;101942.25;;;-0.07;100.00
62791;BME280;48830;53.426;10.300;2023-04-06T04:40:10;101944.56;;;-0.10;100.00
62791;BME280;48830;53.426;10.300;2023-04-06T04:43:05;101939.34;;;-0.12;100.00
62791;BME280;48830;53.426;10.300;2023-04-06T04:45:33;101935.94;;;-0.12;100.00
62791;BME280;48830;53.426;10.300;2023-04-06T04:48:05;101942.66;;;-0.13;100.00
62791;BME280;48830;53.426;10.300;2023-04-06T04:50:44;101946.56;;;-0.16;100.00
62791;BME280;48830;53.426;10.300;2023-04-06T04:53:11;101951.88;;;-0.13;100.00
62791;BME280;48830;53.426;10.300;2023-04-06T04:55:37;101945.84;;;-0.15;100.00
62791;BME280;48830;53.426;10.300;2023-04-06T04:58:03;101951.13;;;-0.12;100.00
62791;BME280;48830;53.426;10.300;2023-04-06T05:00:43;101950.91;;;-0.15;100.00
62791;BME280;48830;53.426;10.300;2023-04-06T05:03:15;101945.50;;;-0.20;100.00
62791;BME280;48830;53.426;10.300;2023-04-06T05:05:44;101941.53;;;-0.16;100.00
62791;BME280;48830;53.426;10.300;2023-04-06T05:08:12;101942.28;;;-0.17;100.00
62791;BME280;48830;53.426;10.300;2023-04-06T05:10:44;101945.06;;;-0.14;100.00
62791;BME280;48830;53.426;10.300;2023-04-06T05:13:10;101946.19;;;-0.11;100.00
62791;BME280;48830;53.426;10.300;2023-04-06T05:15:36;101942.75;;;-0.11;100.00
62791;BME280;48830;53.426;10.300;2023-04-06T05:18:17;101945.53;;;-0.08;100.00
62791;BME280;48830;53.426;10.300;2023-04-06T05:20:43;101947.41;;;-0.06;100.00
62791;BME280;48830;53.426;10.300;2023-04-06T05:23:10;101955.47;;;0.01;100.00
62791;BME280;48830;53.426;10.300;2023-04-06T05:25:35;101948.88;;;0.03;100.00
62791;BME280;48830;53.426;10.300;2023-04-06T05:28:11;101949.44;;;0.10;100.00
62791;BME280;48830;53.426;10.300;2023-04-06T05:30:39;101956.50;;;0.14;100.00
62791;BME280;48830;53.426;10.300;2023-04-06T05:33:07;101952.94;;;0.22;100.00
62791;BME280;48830;53.426;10.300;2023-04-06T05:35:46;101946.56;;;0.28;100.00
62791;BME280;48830;53.426;10.300;2023-04-06T05:38:12;101944.84;;;0.38;100.00
62791;BME280;48830;53.426;10.300;2023-04-06T05:40:38;101946.38;;;0.48;100.00
62791;BME280;48830;53.426;10.300;2023-04-06T05:43:07;101955.88;;;0.62;100.00
62791;BME280;48830;53.426;10.300;2023-04-06T05:45:33;101949.75;;;0.70;100.00
62791;BME280;48830;53.426;10.300;2023-04-06T05:48:02;101947.34;;;0.84;100.00
62791;BME280;48830;53.426;10.300;2023-04-06T05:50:29;101952.75;;;1.00;100.00
62791;BME280;48830;53.426;10.300;2023-04-06T05:52:56;101952.88;;;1.13;100.00
62791;BME280;48830;53.426;10.300;2023-04-06T05:55:25;101953.19;;;1.29;100.00
62791;BME280;48830;53.426;10.300;2023-04-06T05:58:03;101952.72;;;1.47;100.00
62791;BME280;48830;53.426;10.300;2023-04-06T06:00:28;101948.53;;;1.59;100.00
62791;BME280;48830;53.426;10.300;2023-04-06T06:03:01;101955.03;;;1.67;100.00
62791;BME280;48830;53.426;10.300;2023-04-06T06:05:30;101956.06;;;1.82;100.00
62791;BME280;48830;53.426;10.300;2023-04-06T06:08:00;101956.50;;;1.89;100.00
62791;BME280;48830;53.426;10.300;2023-04-06T06:10:28;101958.13;;;2.00;100.00
62791;BME280;48830;53.426;10.300;2023-04-06T06:12:54;101956.97;;;2.08;100.00
62791;BME280;48830;53.426;10.300;2023-04-06T06:15:20;101948.09;;;2.26;100.00
62791;BME280;48830;53.426;10.300;2023-04-06T06:17:47;101952.50;;;2.42;100.00
62791;BME280;48830;53.426;10.300;2023-04-06T06:20:13;101951.97;;;2.59;100.00
62791;BME280;48830;53.426;10.300;2023-04-06T06:22:38;101955.22;;;2.70;100.00
62791;BME280;48830;53.426;10.300;2023-04-06T06:25:08;101959.13;;;2.78;100.00
62791;BME280;48830;53.426;10.300;2023-04-06T06:27:33;101956.81;;;2.95;100.00
62791;BME280;48830;53.426;10.300;2023-04-06T06:29:59;101955.84;;;3.06;100.00
62791;BME280;48830;53.426;10.300;2023-04-06T06:32:25;101951.06;;;3.24;100.00
62791;BME280;48830;53.426;10.300;2023-04-06T06:34:52;101952.91;;;3.26;100.00
62791;BME280;48830;53.426;10.300;2023-04-06T06:37:18;101956.00;;;3.49;100.00
62791;BME280;48830;53.426;10.300;2023-04-06T06:39:44;101948.78;;;3.55;100.00
62791;BME280;48830;53.426;10.300;2023-04-06T06:42:09;101952.47;;;3.60;100.00
62791;BME280;48830;53.426;10.300;2023-04-06T06:45:01;101950.66;;;3.85;98.96
62791;BME280;48830;53.426;10.300;2023-04-06T06:47:26;101949.47;;;3.93;97.35
62791;BME280;48830;53.426;10.300;2023-04-06T06:49:52;101955.34;;;4.20;97.12
62791;BME280;48830;53.426;10.300;2023-04-06T06:52:17;101944.03;;;4.30;94.17
62791;BME280;48830;53.426;10.300;2023-04-06T06:54:43;101950.66;;;4.56;93.00
62791;BME280;48830;53.426;10.300;2023-04-06T06:57:09;101948.91;;;4.85;91.71
62791;BME280;48830;53.426;10.300;2023-04-06T06:59:35;101948.19;;;4.87;89.91
62791;BME280;48830;53.426;10.300;2023-04-06T07:02:00;101948.19;;;5.17;88.42
62791;BME280;48830;53.426;10.300;2023-04-06T07:04:26;101950.81;;;5.18;85.08
62791;BME280;48830;53.426;10.300;2023-04-06T07:06:51;101957.03;;;5.38;86.67
62791;BME280;48830;53.426;10.300;2023-04-06T07:09:18;101948.97;;;5.47;83.09
62791;BME280;48830;53.426;10.300;2023-04-06T07:11:44;101963.97;;;5.57;82.15
62791;BME280;48830;53.426;10.300;2023-04-06T07:14:09;101964.53;;;5.51;81.73
62791;BME280;48830;53.426;10.300;2023-04-06T07:16:37;101963.31;;;5.76;81.53
62791;BME280;48830;53.426;10.300;2023-04-06T07:19:03;101961.22;;;5.85;82.60
62791;BME280;48830;53.426;10.300;2023-04-06T07:21:29;101965.19;;;5.95;81.04
62791;BME280;48830;53.426;10.300;2023-04-06T07:23:55;101955.31;;;6.17;80.39
62791;BME280;48830;53.426;10.300;2023-04-06T07:26:20;101956.47;;;6.40;81.80
62791;BME280;48830;53.426;10.300;2023-04-06T07:28:46;101949.22;;;6.48;79.27
62791;BME280;48830;53.426;10.300;2023-04-06T07:31:12;101949.72;;;6.75;80.52
62791;BME280;48830;53.426;10.300;2023-04-06T07:33:37;101947.22;;;6.76;80.91
62791;BME280;48830;53.426;10.300;2023-04-06T07:36:03;101944.50;;;7.07;80.73
62791;BME280;48830;53.426;10.300;2023-04-06T07:38:29;101944.50;;;7.07;81.21
62791;BME280;48830;53.426;10.300;2023-04-06T07:40:55;101946.88;;;7.40;82.47
62791;BME280;48830;53.426;10.300;2023-04-06T07:43:20;101945.19;;;7.41;74.00
62791;BME280;48830;53.426;10.300;2023-04-06T07:45:47;101935.63;;;7.74;72.38
62791;BME280;48830;53.426;10.300;2023-04-06T07:48:14;101936.59;;;7.95;72.83
62791;BME280;48830;53.426;10.300;2023-04-06T07:50:40;101941.38;;;7.87;71.00
62791;BME280;48830;53.426;10.300;2023-04-06T07:53:08;101939.97;;;7.94;71.87
62791;BME280;48830;53.426;10.300;2023-04-06T07:55:34;101932.53;;;8.39;71.76
62791;BME280;48830;53.426;10.300;2023-04-06T07:58:00;101941.03;;;8.57;70.76
62791;BME280;48830;53.426;10.300;2023-04-06T08:00:25;101937.78;;;8.61;70.59
62791;BME280;48830;53.426;10.300;2023-04-06T08:02:51;101935.41;;;8.87;68.78
62791;BME280;48830;53.426;10.300;2023-04-06T08:05:16;101935.28;;;8.84;68.52
62791;BME280;48830;53.426;10.300;2023-04-06T08:07:43;101933.41;;;8.80;68.51
62791;BME280;48830;53.426;10.300;2023-04-06T08:10:09;101937.91;;;9.06;68.88
62791;BME280;48830;53.426;10.300;2023-04-06T08:12:34;101933.84;;;9.34;66.46
62791;BME280;48830;53.426;10.300;2023-04-06T08:15:00;101936.00;;;9.23;63.13
62791;BME280;48830;53.426;10.300;2023-04-06T08:17:26;101939.34;;;9.43;63.00
62791;BME280;48830;53.426;10.300;2023-04-06T08:19:55;101937.34;;;9.36;63.44
62791;BME280;48830;53.426;10.300;2023-04-06T08:22:21;101934.25;;;9.67;61.13
62791;BME280;48830;53.426;10.300;2023-04-06T08:24:46;101933.94;;;9.82;62.23
62791;BME280;48830;53.426;10.300;2023-04-06T08:27:11;101929.16;;;9.91;63.73
62791;BME280;48830;53.426;10.300;2023-04-06T08:29:39;101925.16;;;9.99;60.71
62791;BME280;48830;53.426;10.300;2023-04-06T08:32:04;101931.47;;;10.31;59.28
62791;BME280;48830;53.426;10.300;2023-04-06T08:34:34;101929.06;;;10.36;56.87
62791;BME280;48830;53.426;10.300;2023-04-06T08:37:01;101930.09;;;10.66;56.88
62791;BME280;48830;53.426;10.300;2023-04-06T08:39:27;101933.69;;;10.71;56.05
62791;BME280;48830;53.426;10.300;2023-04-06T08:41:53;101924.09;;;10.93;56.11
62791;BME280;48830;53.426;10.300;2023-04-06T08:44:22;101923.00;;;11.13;56.48
62791;BME280;48830;53.426;10.300;2023-04-06T08:46:48;101920.34;;;11.37;52.43
62791;BME280;48830;53.426;10.300;2023-04-06T08:49:16;101925.44;;;11.36;53.75
62791;BME280;48830;53.426;10.300;2023-04-06T08:51:42;101917.88;;;11.70;52.49
62791;BME280;48830;53.426;10.300;2023-04-06T08:54:08;101922.72;;;11.60;51.96
62791;BME280;48830;53.426;10.300;2023-04-06T08:56:37;101915.88;;;11.32;52.56
62791;BME280;48830;53.426;10.300;2023-04-06T08:59:03;101912.47;;;11.90;52.96
62791;BME280;48830;53.426;10.300;2023-04-06T09:01:29;101914.25;;;11.94;50.71
62791;BME280;48830;53.426;10.300;2023-04-06T09:03:59;101918.84;;;11.74;50.12
62791;BME280;48830;53.426;10.300;2023-04-06T09:06:26;101916.44;;;12.10;51.37
62791;BME280;48830;53.426;10.300;2023-04-06T09:08:52;101912.38;;;12.18;51.25
62791;BME280;48830;53.426;10.300;2023-04-06T09:11:18;101919.13;;;12.48;50.63
62791;BME280;48830;53.426;10.300;2023-04-06T09:13:54;101909.94;;;12.57;50.23
62791;BME280;48830;53.426;10.300;2023-04-06T09:16:20;101909.34;;;12.69;49.09
62791;BME280;48830;53.426;10.300;2023-04-06T09:18:46;101906.78;;;12.69;46.19
62791;BME280;48830;53.426;10.300;2023-04-06T09:21:13;101907.41;;;12.95;45.13
62791;BME280;48830;53.426;10.300;2023-04-06T09:23:39;101903.25;;;13.02;45.21
62791;BME280;48830;53.426;10.300;2023-04-06T09:26:19;101910.13;;;13.01;44.07
62791;BME280;48830;53.426;10.300;2023-04-06T09:28:53;101900.69;;;13.02;42.30
62791;BME280;48830;53.426;10.300;2023-04-06T09:31:24;101897.56;;;13.15;42.87
62791;BME280;48830;53.426;10.300;2023-04-06T09:33:50;101892.75;;;12.58;40.34
62791;BME280;48830;53.426;10.300;2023-04-06T09:36:17;101885.31;;;12.35;40.93
62791;BME280;48830;53.426;10.300;2023-04-06T09:43:47;101883.31;;;12.95;40.17
62791;BME280;48830;53.426;10.300;2023-04-06T09:46:13;101893.72;;;12.98;41.12
62791;BME280;48830;53.426;10.300;2023-04-06T09:48:40;101884.34;;;12.65;40.17
62791;BME280;48830;53.426;10.300;2023-04-06T09:51:06;101882.75;;;12.70;40.85
62791;BME280;48830;53.426;10.300;2023-04-06T09:53:35;101879.59;;;12.82;40.25
62791;BME280;48830;53.426;10.300;2023-04-06T09:56:03;101873.47;;;13.16;40.57
62791;BME280;48830;53.426;10.300;2023-04-06T09:58:34;101885.03;;;13.30;39.22
62791;BME280;48830;53.426;10.300;2023-04-06T10:01:10;101875.88;;;13.46;40.26
62791;BME280;48830;53.426;10.300;2023-04-06T10:03:45;101872.91;;;13.70;39.88
62791;BME280;48830;53.426;10.300;2023-04-06T10:06:17;101874.72;;;14.19;38.81
62791;BME280;48830;53.426;10.300;2023-04-06T10:08:47;101868.00;;;14.31;39.20
62791;BME280;48830;53.426;10.300;2023-04-06T10:11:13;101871.03;;;14.07;39.14
62791;BME280;48830;53.426;10.300;2023-04-06T10:13:38;101875.09;;;14.41;38.54
62791;BME280;48830;53.426;10.300;2023-04-06T10:16:05;101879.94;;;14.23;38.40
62791;BME280;48830;53.426;10.300;2023-04-06T10:18:32;101866.81;;;14.12;38.12
62791;BME280;48830;53.426;10.300;2023-04-06T10:21:09;101875.53;;;14.65;38.13
62791;BME280;48830;53.426;10.300;2023-04-06T10:23:51;101861.28;;;14.40;38.84
62791;BME280;48830;53.426;10.300;2023-04-06T10:26:19;101869.00;;;14.37;37.84
62791;BME280;48830;53.426;10.300;2023-04-06T10:28:47;101872.16;;;14.21;37.83
62791;BME280;48830;53.426;10.300;2023-04-06T10:31:13;101869.41;;;14.60;39.46
62791;BME280;48830;53.426;10.300;2023-04-06T10:33:39;101855.25;;;14.93;38.14
62791;BME280;48830;53.426;10.300;2023-04-06T10:36:12;101855.41;;;15.05;38.87
62791;BME280;48830;53.426;10.300;2023-04-06T10:38:39;101854.97;;;15.37;38.42
62791;BME280;48830;53.426;10.300;2023-04-06T10:41:06;101857.34;;;15.90;37.38
62791;BME280;48830;53.426;10.300;2023-04-06T10:43:36;101855.56;;;15.87;37.19
62791;BME280;48830;53.426;10.300;2023-04-06T10:46:03;101852.09;;;15.82;37.54
62791;BME280;48830;53.426;10.300;2023-04-06T10:48:43;101846.44;;;15.45;38.27
62791;BME280;48830;53.426;10.300;2023-04-06T10:51:16;101850.50;;;15.96;37.21
62791;BME280;48830;53.426;10.300;2023-04-06T10:53:44;101851.19;;;15.79;37.99
62791;BME280;48830;53.426;10.300;2023-04-06T10:56:11;101844.00;;;15.58;37.05
62791;BME280;48830;53.426;10.300;2023-04-06T10:58:37;101841.94;;;16.07;37.57
62791;BME280;48830;53.426;10.300;2023-04-06T11:01:02;101836.78;;;15.32;37.29
62791;BME280;48830;53.426;10.300;2023-04-06T11:03:29;101839.38;;;16.08;37.57
62791;BME280;48830;53.426;10.300;2023-04-06T11:05:54;101836.59;;;15.88;36.67
62791;BME280;48830;53.426;10.300;2023-04-06T11:08:28;101831.84;;;16.37;36.53
62791;BME280;48830;53.426;10.300;2023-04-06T11:11:14;101846.22;;;16.00;37.10
62791;BME280;48830;53.426;10.300;2023-04-06T11:16:07;101834.19;;;16.08;36.20
62791;BME280;48830;53.426;10.300;2023-04-06T11:18:32;101824.28;;;16.65;37.38
62791;BME280;48830;53.426;10.300;2023-04-06T11:20:58;101828.94;;;16.00;37.08
62791;BME280;48830;53.426;10.300;2023-04-06T11:23:24;101823.63;;;15.88;36.53
62791;BME280;48830;53.426;10.300;2023-04-06T11:25:53;101820.38;;;16.12;36.74
62791;BME280;48830;53.426;10.300;2023-04-06T11:28:20;101823.50;;;16.75;36.78
62791;BME280;48830;53.426;10.300;2023-04-06T11:30:46;101833.75;;;14.99;37.52
62791;BME280;48830;53.426;10.300;2023-04-06T11:33:20;101816.28;;;15.52;37.27
62791;BME280;48830;53.426;10.300;2023-04-06T11:35:45;101806.31;;;15.84;37.25
62791;BME280;48830;53.426;10.300;2023-04-06T11:38:11;101812.28;;;15.77;37.52
62791;BME280;48830;53.426;10.300;2023-04-06T11:40:37;101811.88;;;16.30;36.86
62791;BME280;48830;53.426;10.300;2023-04-06T11:43:03;101806.72;;;16.32;36.55
62791;BME280;48830;53.426;10.300;2023-04-06T11:45:39;101814.13;;;15.90;37.25
62791;BME280;48830;53.426;10.300;2023-04-06T11:48:04;101808.84;;;16.82;36.66
62791;BME280;48830;53.426;10.300;2023-04-06T11:50:33;101804.41;;;16.70;35.67
62791;BME280;48830;53.426;10.300;2023-04-06T11:53:01;101798.09;;;16.34;36.19
62791;BME280;48830;53.426;10.300;2023-04-06T11:55:27;101799.81;;;16.35;36.64
62791;BME280;48830;53.426;10.300;2023-04-06T11:57:52;101806.47;;;16.02;36.53
62791;BME280;48830;53.426;10.300;2023-04-06T12:00:18;101803.66;;;15.78;36.93
62791;BME280;48830;53.426;10.300;2023-04-06T12:02:46;101797.16;;;16.26;37.31
62791;BME280;48830;53.426;10.300;2023-04-06T12:05:12;101793.34;;;15.87;36.28
62791;BME280;48830;53.426;10.300;2023-04-06T12:07:38;101793.97;;;16.67;36.74
62791;BME280;48830;53.426;10.300;2023-04-06T12:10:04;101790.38;;;16.46;36.22
62791;BME280;48830;53.426;10.300;2023-04-06T12:12:30;101800.50;;;16.13;35.72
62791;BME280;48830;53.426;10.300;2023-04-06T12:14:56;101795.72;;;16.65;36.37
62791;BME280;48830;53.426;10.300;2023-04-06T12:17:22;101788.94;;;16.88;35.81
62791;BME280;48830;53.426;10.300;2023-04-06T12:19:48;101782.84;;;16.75;35.27
62791;BME280;48830;53.426;10.300;2023-04-06T12:22:14;101782.16;;;17.15;35.91
62791;BME280;48830;53.426;10.300;2023-04-06T12:24:40;101779.50;;;17.02;35.33
62791;BME280;48830;53.426;10.300;2023-04-06T12:27:06;101787.16;;;16.78;35.24
62791;BME280;48830;53.426;10.300;2023-04-06T12:29:32;101780.47;;;17.24;35.54
62791;BME280;48830;53.426;10.300;2023-04-06T12:31:57;101776.94;;;17.09;35.31
62791;BME280;48830;53.426;10.300;2023-04-06T12:34:23;101784.03;;;17.62;34.84
62791;BME280;48830;53.426;10.300;2023-04-06T12:36:48;101787.50;;;17.70;34.99
62791;BME280;48830;53.426;10.300;2023-04-06T12:39:14;101782.06;;;16.93;35.74
62791;BME280;48830;53.426;10.300;2023-04-06T12:41:39;101780.34;;;16.98;34.65
62791;BME280;48830;53.426;10.300;2023-04-06T12:44:07;101781.88;;;16.66;35.84
62791;BME280;48830;53.426;10.300;2023-04-06T12:46:33;101784.69;;;17.04;35.14
62791;BME280;48830;53.426;10.300;2023-04-06T12:48:59;101784.63;;;16.87;36.16
62791;BME280;48830;53.426;10.300;2023-04-06T12:51:27;101780.94;;;16.53;35.45